Time;durP1;ratioP1;P1;durP2;ratioP2;P2;SDS_P1;SDS_P2;PMS_P1;PMS_P2;Temp;Humidity;BMP_temperature;BMP_pressure;BME280_temperature;BME280_humidity;BME280_pressure;Samples;Min_cycle;Max_cycle;Signal;HPM_P1;HPM_P2
2020/12/17 00:02:24;;;;;;;12.13;6.00;;;9.70;90.50;;;;;;4960606;28;19973;-51
2020/12/17 00:04:49;;;;;;;12.95;6.22;;;9.70;90.50;;;;;;4956248;29;20090;-51
2020/12/17 00:07:15;;;;;;;12.93;6.90;;;9.70;90.60;;;;;;4956037;28;20453;-51
2020/12/17 00:09:40;;;;;;;9.75;6.88;;;9.70;90.60;;;;;;4955599;28;20038;-51
2020/12/17 00:12:06;;;;;;;15.35;7.47;;;9.70;90.60;;;;;;4970286;28;20041;-51
2020/12/17 00:14:32;;;;;;;16.27;7.93;;;9.70;90.50;;;;;;4978922;28;20039;-51
2020/12/17 00:16:58;;;;;;;14.18;6.45;;;9.70;90.60;;;;;;4969459;28;20023;-51
2020/12/17 00:19:24;;;;;;;14.30;6.88;;;9.70;90.50;;;;;;4959370;28;20031;-51
2020/12/17 00:21:52;;;;;;;11.82;6.38;;;9.70;90.50;;;;;;4971124;28;20018;-51
2020/12/17 00:24:18;;;;;;;12.95;6.03;;;9.70;90.50;;;;;;4964872;28;20057;-51
2020/12/17 00:26:43;;;;;;;16.35;7.93;;;9.70;90.40;;;;;;4959114;29;20548;-51
2020/12/17 00:29:09;;;;;;;17.77;7.82;;;9.70;90.40;;;;;;4959224;28;20042;-51
2020/12/17 00:31:34;;;;;;;13.68;7.70;;;9.70;90.50;;;;;;4969524;28;20037;-51
2020/12/17 00:34:00;;;;;;;17.08;7.32;;;9.70;90.40;;;;;;4977990;28;20416;-52
2020/12/17 00:36:26;;;;;;;11.95;5.97;;;9.70;90.50;;;;;;4977625;28;20034;-51
2020/12/17 00:38:51;;;;;;;18.92;7.90;;;9.60;90.50;;;;;;4978041;28;20174;-51
2020/12/17 00:41:17;;;;;;;13.00;5.80;;;9.70;90.50;;;;;;4973875;28;20043;-51
2020/12/17 00:43:45;;;;;;;12.63;5.63;;;9.70;90.50;;;;;;4962099;28;20426;-51
2020/12/17 00:46:15;;;;;;;11.90;6.50;;;9.70;90.40;;;;;;4969720;28;20053;-51
2020/12/17 00:48:41;;;;;;;12.68;6.28;;;9.70;90.40;;;;;;4978183;28;20026;-51
2020/12/17 00:51:07;;;;;;;13.60;6.30;;;9.70;90.50;;;;;;4970506;28;20036;-51
2020/12/17 00:53:33;;;;;;;11.20;5.75;;;9.70;90.50;;;;;;4958810;29;20085;-51
2020/12/17 00:55:59;;;;;;;9.30;4.88;;;9.70;90.50;;;;;;4958758;28;20361;-51
2020/12/17 00:58:24;;;;;;;12.35;6.57;;;9.60;90.30;;;;;;4958552;29;20023;-51
2020/12/17 01:00:50;;;;;;;10.82;5.43;;;9.60;90.40;;;;;;4960885;28;20023;-51
2020/12/17 01:03:16;;;;;;;10.35;5.18;;;9.60;90.40;;;;;;4977250;28;20058;-51
2020/12/17 01:05:41;;;;;;;13.82;6.53;;;9.60;90.40;;;;;;4971001;28;20202;-51
2020/12/17 01:08:07;;;;;;;12.88;5.75;;;9.60;90.40;;;;;;4977782;28;20039;-51
2020/12/17 01:10:33;;;;;;;13.55;6.30;;;9.60;90.50;;;;;;4975982;28;20359;-51
2020/12/17 01:12:59;;;;;;;13.90;5.88;;;9.60;90.40;;;;;;4960839;28;20035;-51
2020/12/17 01:15:24;;;;;;;15.20;5.38;;;9.60;90.50;;;;;;4977967;28;20086;-51
2020/12/17 01:17:50;;;;;;;11.25;5.80;;;9.70;90.50;;;;;;4976619;28;20019;-51
2020/12/17 01:20:16;;;;;;;12.02;5.85;;;9.70;90.50;;;;;;4975570;28;20461;-51
2020/12/17 01:22:42;;;;;;;9.88;5.43;;;9.60;90.30;;;;;;4962829;28;20031;-51
2020/12/17 01:25:08;;;;;;;13.20;5.78;;;9.70;90.40;;;;;;4958232;29;20189;-51
2020/12/17 01:27:34;;;;;;;9.55;5.20;;;9.70;90.40;;;;;;4958245;28;20081;-51
2020/12/17 01:29:59;;;;;;;8.27;3.92;;;9.60;90.40;;;;;;4958044;29;20463;-51
2020/12/17 01:32:25;;;;;;;7.53;4.50;;;9.60;90.30;;;;;;4972539;28;20030;-51
2020/12/17 01:34:50;;;;;;;9.35;5.22;;;9.60;90.40;;;;;;4974718;28;20062;-51
2020/12/17 01:37:16;;;;;;;10.80;5.50;;;9.60;90.30;;;;;;4969586;28;20037;-51
2020/12/17 01:39:42;;;;;;;11.32;5.07;;;9.60;90.30;;;;;;4977031;28;20037;-51
2020/12/17 01:42:08;;;;;;;8.30;4.97;;;9.60;90.30;;;;;;4964613;28;20373;-51
2020/12/17 01:44:41;;;;;;;9.05;4.18;;;9.60;90.40;;;;;;4962557;28;20162;-51
2020/12/17 01:47:07;;;;;;;7.00;3.75;;;9.60;90.30;;;;;;4976472;28;20085;-51
2020/12/17 01:49:33;;;;;;;10.50;5.50;;;9.60;90.40;;;;;;4976559;28;20062;-51
2020/12/17 01:51:59;;;;;;;8.70;4.38;;;9.60;90.30;;;;;;4965496;28;20166;-51
2020/12/17 01:54:25;;;;;;;11.13;5.70;;;9.60;90.30;;;;;;4969448;28;20470;-51
2020/12/17 01:57:00;;;;;;;10.20;5.57;;;9.60;90.20;;;;;;4976903;28;20027;-51
2020/12/17 01:59:28;;;;;;;12.88;5.05;;;9.60;90.30;;;;;;4972980;28;20037;-52
2020/12/17 02:01:54;;;;;;;11.63;5.68;;;9.60;90.30;;;;;;4967095;28;20035;-51
2020/12/17 02:04:22;;;;;;;10.05;4.88;;;9.60;90.30;;;;;;4975397;28;20402;-51
2020/12/17 02:06:48;;;;;;;17.40;6.75;;;9.60;90.30;;;;;;4976667;28;20034;-51
2020/12/17 02:09:18;;;;;;;24.15;6.65;;;9.60;90.20;;;;;;4976730;28;20063;-51
2020/12/17 02:11:54;;;;;;;16.25;7.50;;;9.60;90.40;;;;;;4967702;28;20513;-51
2020/12/17 02:14:21;;;;;;;10.02;5.05;;;9.60;90.30;;;;;;4957300;28;20465;-51
2020/12/17 02:16:47;;;;;;;18.08;6.85;;;9.60;90.30;;;;;;4957546;28;20027;-51
2020/12/17 02:19:12;;;;;;;20.15;8.02;;;9.60;90.20;;;;;;4963398;28;20037;-51
2020/12/17 02:21:38;;;;;;;18.75;7.00;;;9.60;90.20;;;;;;4970718;28;20031;-51
2020/12/17 02:24:04;;;;;;;14.02;6.88;;;9.60;90.20;;;;;;4969892;28;20035;-51
2020/12/17 02:26:30;;;;;;;17.25;7.15;;;9.60;90.30;;;;;;4957387;29;20023;-51
2020/12/17 02:28:56;;;;;;;11.02;5.72;;;9.60;90.20;;;;;;4960704;28;20026;-51
2020/12/17 02:31:25;;;;;;;17.75;6.53;;;9.60;90.30;;;;;;4970752;28;20031;-51
2020/12/17 02:33:51;;;;;;;13.30;6.32;;;9.60;90.30;;;;;;4955882;28;20043;-52
2020/12/17 02:36:16;;;;;;;11.95;5.70;;;9.60;90.20;;;;;;4957213;28;20449;-51
2020/12/17 02:38:43;;;;;;;13.82;6.40;;;9.60;90.30;;;;;;4956868;29;20089;-51
2020/12/17 02:41:09;;;;;;;10.23;4.97;;;9.60;90.20;;;;;;4960357;28;20023;-51
2020/12/17 02:43:35;;;;;;;8.63;5.22;;;9.60;90.20;;;;;;4960701;28;20027;-51
2020/12/17 02:46:00;;;;;;;8.57;5.20;;;9.60;90.20;;;;;;4975693;28;20031;-51
2020/12/17 02:48:26;;;;;;;11.05;5.25;;;9.60;90.20;;;;;;4975655;28;20338;-51
2020/12/17 02:50:51;;;;;;;9.48;4.97;;;9.60;90.30;;;;;;4965665;28;20102;-51
2020/12/17 02:53:17;;;;;;;9.63;5.50;;;9.60;90.20;;;;;;4960052;28;20043;-51
2020/12/17 02:55:43;;;;;;;10.65;4.45;;;9.60;90.20;;;;;;4956934;29;20027;-51
2020/12/17 02:58:08;;;;;;;8.15;5.03;;;9.60;90.20;;;;;;4971087;28;20066;-51
2020/12/17 03:00:34;;;;;;;10.23;5.65;;;9.60;90.20;;;;;;4974217;28;20459;-51
2020/12/17 03:03:00;;;;;;;9.40;4.50;;;9.60;90.30;;;;;;4957366;28;20023;-51
2020/12/17 03:05:26;;;;;;;7.18;4.20;;;9.60;90.30;;;;;;4956969;28;20035;-51
2020/12/17 03:07:51;;;;;;;11.13;5.28;;;9.60;90.10;;;;;;4972958;28;20043;-51
2020/12/17 03:10:17;;;;;;;15.75;6.53;;;9.60;90.20;;;;;;4975752;28;20388;-51
2020/12/17 03:12:44;;;;;;;9.93;5.65;;;9.60;90.30;;;;;;4960031;28;20067;-51
2020/12/17 03:15:13;;;;;;;10.13;5.18;;;9.60;90.10;;;;;;4956513;29;20118;-51
2020/12/17 03:17:40;;;;;;;6.47;4.10;;;9.60;90.20;;;;;;4956330;28;20031;-51
2020/12/17 03:20:08;;;;;;;7.93;4.65;;;9.60;90.20;;;;;;4956164;28;20035;-51
2020/12/17 03:22:34;;;;;;;8.18;4.50;;;9.60;90.10;;;;;;4971170;28;20062;-51
2020/12/17 03:25:00;;;;;;;4.28;2.67;;;9.60;90.20;;;;;;4961690;28;20157;-51
2020/12/17 03:27:26;;;;;;;7.45;3.75;;;9.50;90.00;;;;;;4959962;28;20035;-51
2020/12/17 03:29:52;;;;;;;8.18;4.22;;;9.60;90.30;;;;;;4955988;29;20038;-51
2020/12/17 03:32:18;;;;;;;11.05;4.90;;;9.60;90.10;;;;;;4956146;28;20038;-51
2020/12/17 03:34:43;;;;;;;8.45;4.10;;;9.60;90.20;;;;;;4955784;28;20038;-51
2020/12/17 03:37:09;;;;;;;7.25;4.60;;;9.60;90.10;;;;;;4962096;28;20019;-51
2020/12/17 03:39:36;;;;;;;5.38;3.97;;;9.60;90.10;;;;;;4975227;28;20027;-51
2020/12/17 03:42:02;;;;;;;8.15;5.07;;;9.60;90.20;;;;;;4965867;28;20023;-51
2020/12/17 03:44:28;;;;;;;8.80;4.53;;;9.60;90.10;;;;;;4966313;28;20364;-51
2020/12/17 03:46:54;;;;;;;6.38;3.22;;;9.60;90.20;;;;;;4974552;28;20117;-51
2020/12/17 03:49:20;;;;;;;4.22;2.75;;;9.60;90.20;;;;;;4978928;28;20029;-51
2020/12/17 03:51:45;;;;;;;10.27;4.75;;;9.60;90.10;;;;;;4978964;28;20030;-51
2020/12/17 03:54:11;;;;;;;8.93;4.55;;;9.50;90.20;;;;;;4961042;28;20043;-51
2020/12/17 03:56:36;;;;;;;9.65;5.72;;;9.50;90.00;;;;;;4959269;29;20095;-51
2020/12/17 03:59:03;;;;;;;8.20;4.45;;;9.50;90.10;;;;;;4966948;28;20022;-51
2020/12/17 04:01:28;;;;;;;10.30;6.07;;;9.60;90.10;;;;;;4970177;28;20027;-51
2020/12/17 04:03:54;;;;;;;14.60;6.38;;;9.60;90.20;;;;;;4959644;29;20353;-50
2020/12/17 04:06:20;;;;;;;14.15;5.95;;;9.50;90.00;;;;;;4964703;28;20441;-51
2020/12/17 04:08:45;;;;;;;12.57;6.32;;;9.60;90.10;;;;;;4977858;28;20027;-51
2020/12/17 04:11:11;;;;;;;11.23;6.10;;;9.50;89.90;;;;;;4959722;28;20020;-51
2020/12/17 04:13:37;;;;;;;12.23;5.70;;;9.60;90.00;;;;;;4959637;29;20450;-51
2020/12/17 04:16:03;;;;;;;12.63;6.53;;;9.60;90.10;;;;;;4959448;29;20027;-51
2020/12/17 04:18:29;;;;;;;10.73;5.50;;;9.60;90.00;;;;;;4959599;29;20054;-51
2020/12/17 04:20:55;;;;;;;8.80;4.63;;;9.50;90.10;;;;;;4967130;28;20441;-51
2020/12/17 04:23:20;;;;;;;10.75;5.60;;;9.60;90.10;;;;;;4974726;28;20360;-51
2020/12/17 04:25:46;;;;;;;9.65;5.53;;;9.60;90.10;;;;;;4960321;28;20037;-51
2020/12/17 04:28:12;;;;;;;13.50;6.70;;;9.60;90.00;;;;;;4959889;28;20027;-51
2020/12/17 04:30:37;;;;;;;14.40;5.50;;;9.60;90.10;;;;;;4961965;28;20086;-51
2020/12/17 04:33:03;;;;;;;11.63;5.50;;;9.60;90.10;;;;;;4962326;28;20357;-51
2020/12/17 04:35:29;;;;;;;10.77;6.13;;;9.60;90.00;;;;;;4978138;28;20062;-51
2020/12/17 04:37:54;;;;;;;11.40;5.18;;;9.60;90.00;;;;;;4978712;28;20027;-51
2020/12/17 04:40:20;;;;;;;10.23;4.68;;;9.50;90.00;;;;;;4960121;28;20078;-51
2020/12/17 04:42:49;;;;;;;9.43;5.10;;;9.60;90.00;;;;;;4972376;28;20122;-51
2020/12/17 04:45:15;;;;;;;7.53;5.15;;;9.60;90.10;;;;;;4977938;28;20023;-51
2020/12/17 04:47:45;;;;;;;7.88;4.47;;;9.60;89.90;;;;;;4977872;28;20035;-51
2020/12/17 04:50:14;;;;;;;4.47;2.67;;;9.60;90.00;;;;;;4958733;28;20122;-51
2020/12/17 04:52:40;;;;;;;9.00;4.80;;;9.50;90.00;;;;;;4971880;28;20042;-51
2020/12/17 04:55:07;;;;;;;12.80;5.88;;;9.60;90.00;;;;;;4961731;28;20417;-51
2020/12/17 04:57:35;;;;;;;8.70;5.13;;;9.50;90.00;;;;;;4957911;28;20031;-51
2020/12/17 05:00:01;;;;;;;13.07;5.40;;;9.50;90.00;;;;;;4958679;28;20035;-51
2020/12/17 05:02:26;;;;;;;6.35;3.78;;;9.50;90.00;;;;;;4970996;28;20031;-51
2020/12/17 05:04:54;;;;;;;8.27;4.72;;;9.60;90.10;;;;;;4977843;28;20085;-51
2020/12/17 05:07:23;;;;;;;9.93;5.38;;;9.50;89.90;;;;;;4960968;28;20035;-51
2020/12/17 05:09:50;;;;;;;10.73;5.10;;;9.50;89.90;;;;;;4958403;29;20035;-51
2020/12/17 05:12:17;;;;;;;8.00;5.45;;;9.50;90.10;;;;;;4958562;28;20122;-51
2020/12/17 05:14:43;;;;;;;10.50;5.28;;;9.50;90.00;;;;;;4963001;28;20031;-51
2020/12/17 05:17:10;;;;;;;14.45;4.35;;;9.50;90.00;;;;;;4964342;28;20469;-52
2020/12/17 05:19:36;;;;;;;15.48;5.22;;;9.50;90.00;;;;;;4958223;28;20434;-52
2020/12/17 05:22:03;;;;;;;13.52;5.55;;;9.50;90.00;;;;;;4965613;28;20050;-51
2020/12/17 05:24:29;;;;;;;8.38;3.60;;;9.50;90.00;;;;;;4977696;28;20026;-51
2020/12/17 05:26:57;;;;;;;0.50;0.50;;;9.50;90.30;;;;;;4964452;28;20027;-51
2020/12/17 05:29:23;;;;;;;10.60;5.60;;;9.50;90.00;;;;;;4958310;28;20028;-51
2020/12/17 05:31:49;;;;;;;7.40;4.43;;;9.50;90.00;;;;;;4964923;28;20090;-51
2020/12/17 05:34:16;;;;;;;8.48;4.43;;;9.50;89.90;;;;;;4967467;28;20071;-52
2020/12/17 05:36:43;;;;;;;11.23;5.68;;;9.50;89.80;;;;;;4960098;28;20027;-51
2020/12/17 05:39:21;;;;;;;7.90;3.95;;;9.50;89.90;;;;;;4958001;29;20043;-52
2020/12/17 05:41:50;;;;;;;9.85;4.65;;;9.50;89.90;;;;;;4962500;28;20026;-51
2020/12/17 05:44:19;;;;;;;7.80;4.28;;;9.50;89.60;;;;;;4969690;28;20031;-51
2020/12/17 05:46:47;;;;;;;7.05;3.28;;;9.50;89.70;;;;;;4970084;28;20030;-52
2020/12/17 05:49:28;;;;;;;13.55;6.22;;;9.50;89.70;;;;;;4967380;28;20093;-51
2020/12/17 05:52:20;;;;;;;11.75;6.18;;;9.50;89.60;;;;;;4957758;28;20413;-52
2020/12/17 05:54:52;;;;;;;7.35;4.65;;;9.50;89.40;;;;;;4957861;28;20070;-51
2020/12/17 05:57:18;;;;;;;5.32;4.07;;;9.50;89.90;;;;;;4957253;28;20022;-51
2020/12/17 06:00:04;;;;;;;12.05;5.93;;;9.50;89.90;;;;;;4965374;28;20094;-51
2020/12/17 06:02:32;;;;;;;3.83;2.83;;;9.50;89.50;;;;;;4965930;28;20054;-51
2020/12/17 06:05:03;;;;;;;10.15;5.15;;;9.50;89.80;;;;;;4975709;28;20105;-51
2020/12/17 06:07:48;;;;;;;11.25;6.07;;;9.50;89.70;;;;;;4976589;28;20042;-51
2020/12/17 06:10:25;;;;;;;11.20;6.03;;;9.50;89.60;;;;;;4969075;28;20110;-52
2020/12/17 06:12:59;;;;;;;10.77;5.90;;;9.50;90.10;;;;;;4968104;28;20089;-52
2020/12/17 06:15:29;;;;;;;15.18;6.30;;;9.50;89.50;;;;;;4957601;29;20031;-51
2020/12/17 06:18:02;;;;;;;12.68;6.38;;;9.50;89.70;;;;;;4957969;28;20409;-51
2020/12/17 06:20:30;;;;;;;10.90;4.80;;;9.50;89.30;;;;;;4962190;28;20409;-51
2020/12/17 06:23:02;;;;;;;12.40;5.93;;;9.50;89.30;;;;;;4969215;28;20023;-52
2020/12/17 06:25:30;;;;;;;9.35;4.53;;;9.50;89.50;;;;;;4967781;28;20345;-51
2020/12/17 06:27:56;;;;;;;12.57;5.38;;;9.50;89.50;;;;;;4963419;28;20058;-52
2020/12/17 06:30:27;;;;;;;10.95;5.07;;;9.60;89.60;;;;;;4965111;28;20400;-51
2020/12/17 06:32:58;;;;;;;8.30;4.35;;;9.50;89.30;;;;;;4968288;28;20041;-52
2020/12/17 06:35:34;;;;;;;9.52;4.53;;;9.50;89.40;;;;;;4966230;28;20476;-52
2020/12/17 06:38:07;;;;;;;8.38;4.40;;;9.50;89.60;;;;;;4974182;28;20034;-52
2020/12/17 06:40:33;;;;;;;9.55;5.00;;;9.50;89.50;;;;;;4966969;28;20031;-52
2020/12/17 06:42:58;;;;;;;10.95;5.28;;;9.50;90.00;;;;;;4963710;28;20246;-52
2020/12/17 06:45:31;;;;;;;9.65;5.40;;;9.50;89.60;;;;;;4962538;28;20464;-52
2020/12/17 06:47:57;;;;;;;9.68;4.13;;;9.50;89.60;;;;;;4968617;28;20050;-52
2020/12/17 06:50:29;;;;;;;8.73;4.10;;;9.50;89.30;;;;;;4971871;28;20031;-52
2020/12/17 06:53:18;;;;;;;12.43;5.75;;;9.50;89.40;;;;;;4959300;28;20070;-52
2020/12/17 06:55:57;;;;;;;13.93;5.78;;;9.50;89.10;;;;;;4956798;28;20034;-52
2020/12/17 06:58:24;;;;;;;14.65;4.55;;;9.50;89.20;;;;;;4964173;28;20483;-52
2020/12/17 07:00:52;;;;;;;7.75;4.55;;;9.50;89.60;;;;;;4963667;28;20035;-51
2020/12/17 07:03:46;;;;;;;9.25;5.15;;;9.50;89.40;;;;;;4962461;28;20062;-52
2020/12/17 07:06:23;;;;;;;7.70;3.40;;;9.50;89.20;;;;;;4969479;28;20026;-52
2020/12/17 07:08:50;;;;;;;12.52;5.97;;;9.50;89.30;;;;;;4961935;28;20110;-52
2020/12/17 07:11:41;;;;;;;9.88;5.10;;;9.50;89.40;;;;;;4960560;28;20445;-51
2020/12/17 07:14:08;;;;;;;;;;;9.50;89.30;;;;;;4959657;28;20047;-52
2020/12/17 07:16:36;;;;;;;11.50;5.03;;;9.50;89.30;;;;;;4964286;28;19911;-52
2020/12/17 07:19:29;;;;;;;9.07;3.88;;;9.50;89.20;;;;;;4968359;28;20031;-52
2020/12/17 07:21:58;;;;;;;10.65;5.32;;;9.50;89.70;;;;;;4961741;28;20031;-51
2020/12/17 07:24:27;;;;;;;8.05;3.90;;;9.50;89.60;;;;;;4974730;28;20035;-52
2020/12/17 07:26:54;;;;;;;17.83;7.05;;;9.50;89.50;;;;;;4965262;28;20062;-52
2020/12/17 07:29:51;;;;;;;15.07;5.95;;;9.50;89.40;;;;;;4967253;28;20034;-51
2020/12/17 07:32:30;;;;;;;17.05;7.15;;;9.50;89.20;;;;;;4950165;28;20122;-52
2020/12/17 07:35:06;;;;;;;12.50;5.93;;;9.50;89.00;;;;;;4969971;28;20034;-52
2020/12/17 07:37:53;;;;;;;12.85;5.53;;;9.50;89.10;;;;;;4974430;28;20026;-52
2020/12/17 07:40:33;;;;;;;16.10;6.75;;;9.50;88.80;;;;;;4979303;28;20419;-52
2020/12/17 07:42:59;;;;;;;;;;;9.50;89.00;;;;;;4976018;28;20066;-52
2020/12/17 07:45:50;;;;;;;7.32;4.63;;;9.50;88.80;;;;;;4972109;28;19958;-52
2020/12/17 07:48:38;;;;;;;12.63;5.30;;;9.50;89.10;;;;;;4955387;29;20035;-52
2020/12/17 07:51:13;;;;;;;8.25;4.85;;;9.50;89.20;;;;;;4965466;28;20058;-52
2020/12/17 07:53:42;;;;;;;9.43;4.47;;;9.50;89.00;;;;;;4968663;28;20034;-52
2020/12/17 07:56:08;;;;;;;13.05;5.13;;;9.50;88.80;;;;;;4963606;28;20125;-52
2020/12/17 07:58:35;;;;;;;12.90;5.90;;;9.60;89.00;;;;;;4959186;28;20465;-51
2020/12/17 08:01:02;;;;;;;9.40;4.93;;;9.60;88.90;;;;;;4968816;28;20038;-52
2020/12/17 08:03:28;;;;;;;10.40;5.30;;;9.60;89.00;;;;;;4959045;28;20350;-52
2020/12/17 08:06:05;;;;;;;9.85;4.65;;;9.50;88.80;;;;;;4964567;28;20022;-51
2020/12/17 08:08:30;;;;;;;8.98;5.00;;;9.60;89.20;;;;;;4968537;28;20038;-52
2020/12/17 08:10:56;;;;;;;11.48;5.57;;;9.60;89.20;;;;;;4964238;28;20023;-52
2020/12/17 08:13:24;;;;;;;8.50;4.65;;;9.60;89.60;;;;;;4962048;28;20036;-52
2020/12/17 08:15:57;;;;;;;7.07;3.75;;;9.50;89.90;;;;;;4954980;28;20035;-51
2020/12/17 08:18:24;;;;;;;5.35;2.70;;;9.50;89.40;;;;;;4951400;29;20039;-51
2020/12/17 08:21:03;;;;;;;9.52;4.95;;;9.50;89.50;;;;;;4951208;28;20030;-52
2020/12/17 08:23:29;;;;;;;9.63;4.95;;;9.50;89.50;;;;;;4950109;28;20027;-52
2020/12/17 08:25:56;;;;;;;3.67;1.45;;;9.50;90.30;;;;;;4960954;28;20058;-52
2020/12/17 08:28:22;;;;;;;7.60;3.75;;;9.50;89.60;;;;;;4965179;28;20430;-52
2020/12/17 08:30:48;;;;;;;8.82;4.65;;;9.50;89.70;;;;;;4969494;28;20105;-51
2020/12/17 08:33:14;;;;;;;10.88;4.88;;;9.50;89.80;;;;;;4960059;28;20342;-52
2020/12/17 08:35:39;;;;;;;5.47;2.80;;;9.50;89.80;;;;;;4957501;28;20393;-52
2020/12/17 08:38:09;;;;;;;5.40;3.13;;;9.50;89.80;;;;;;4963388;28;20034;-52
2020/12/17 08:40:37;;;;;;;13.85;4.45;;;9.50;90.00;;;;;;4971301;28;20353;-52
2020/12/17 08:43:14;;;;;;;8.68;4.20;;;9.50;89.50;;;;;;4973106;28;20046;-52
2020/12/17 08:45:41;;;;;;;4.63;2.13;;;9.50;89.70;;;;;;4966459;28;20030;-52
2020/12/17 08:48:18;;;;;;;6.90;3.25;;;9.50;90.10;;;;;;4972479;28;20346;-52
2020/12/17 08:50:44;;;;;;;5.43;2.55;;;9.50;89.70;;;;;;4965997;28;20026;-52
2020/12/17 08:53:23;;;;;;;12.18;3.80;;;9.50;89.70;;;;;;4973740;28;20070;-52
2020/12/17 08:56:10;;;;;;;11.73;5.63;;;9.50;89.90;;;;;;4975958;28;20027;-52
2020/12/17 08:58:51;;;;;;;6.47;4.22;;;9.60;89.80;;;;;;4974115;28;20369;-52
2020/12/17 09:01:17;;;;;;;;;;;9.50;89.80;;;;;;4973660;28;20456;-51
2020/12/17 09:03:44;;;;;;;6.50;3.97;;;9.50;89.60;;;;;;4974981;28;19919;-52
2020/12/17 09:06:11;;;;;;;9.82;4.53;;;9.60;89.60;;;;;;4975467;28;20053;-52
2020/12/17 09:08:37;;;;;;;8.70;4.72;;;9.60;89.60;;;;;;4976295;28;20031;-52
2020/12/17 09:11:02;;;;;;;12.77;6.93;;;9.60;89.70;;;;;;4967106;28;20034;-52
2020/12/17 09:13:28;;;;;;;9.35;5.22;;;9.60;89.60;;;;;;4976001;28;20035;-52
2020/12/17 09:16:01;;;;;;;11.27;5.78;;;9.60;89.50;;;;;;4968274;28;20086;-52
2020/12/17 09:18:30;;;;;;;11.57;5.10;;;9.60;89.60;;;;;;4974950;28;20038;-52
2020/12/17 09:21:06;;;;;;;9.40;4.55;;;9.60;89.70;;;;;;4976106;28;20027;-52
2020/12/17 09:23:32;;;;;;;7.15;2.92;;;9.60;89.40;;;;;;4977506;28;20449;-52
2020/12/17 09:26:13;;;;;;;7.20;3.65;;;9.60;89.60;;;;;;4964487;28;20035;-52
2020/12/17 09:28:50;;;;;;;11.65;4.72;;;9.60;89.70;;;;;;4975896;28;20031;-52
2020/12/17 09:31:21;;;;;;;9.07;4.35;;;9.60;89.60;;;;;;4967321;28;20027;-52
2020/12/17 09:33:46;;;;;;;;;;;9.60;89.60;;;;;;4963346;28;20469;-52
2020/12/17 09:36:22;;;;;;;10.82;5.40;;;9.60;89.40;;;;;;4972940;28;19921;-52
2020/12/17 09:38:58;;;;;;;11.35;5.25;;;9.70;89.90;;;;;;4967522;28;20053;-52
2020/12/17 09:41:24;;;;;;;16.52;6.43;;;9.60;89.50;;;;;;4972332;28;20038;-52
2020/12/17 09:43:49;;;;;;;15.15;6.30;;;9.70;89.80;;;;;;4976617;28;20015;-52
2020/12/17 09:46:15;;;;;;;11.05;6.78;;;9.70;89.80;;;;;;4972890;28;20023;-52
2020/12/17 09:48:41;;;;;;;18.63;8.98;;;9.60;89.60;;;;;;4974709;28;20456;-52
2020/12/17 09:51:08;;;;;;;11.80;6.13;;;9.60;89.80;;;;;;4975090;28;20356;-52
2020/12/17 09:53:44;;;;;;;11.63;7.10;;;9.70;89.90;;;;;;4973231;28;20133;-52
2020/12/17 09:56:11;;;;;;;18.38;6.88;;;9.60;89.80;;;;;;4973122;28;20050;-52
2020/12/17 09:58:41;;;;;;;17.50;7.60;;;9.60;89.50;;;;;;4975233;28;20038;-52
2020/12/17 10:01:07;;;;;;;15.93;7.30;;;9.70;90.20;;;;;;4970560;28;20074;-52
2020/12/17 10:03:33;;;;;;;11.80;6.22;;;9.70;90.10;;;;;;4971929;28;20405;-51
2020/12/17 10:05:58;;;;;;;14.10;5.25;;;9.70;90.10;;;;;;4975300;28;20352;-52
2020/12/17 10:08:24;;;;;;;11.25;5.78;;;9.70;90.10;;;;;;4975567;28;20053;-52
2020/12/17 10:10:50;;;;;;;11.90;5.82;;;9.70;90.00;;;;;;4974520;28;20019;-52
2020/12/17 10:13:16;;;;;;;13.02;6.63;;;9.70;89.90;;;;;;4965192;28;20034;-52
2020/12/17 10:15:41;;;;;;;6.60;3.63;;;9.70;90.10;;;;;;4976444;28;20054;-52
2020/12/17 10:18:07;;;;;;;14.30;5.80;;;9.70;90.30;;;;;;4971155;28;20101;-52
2020/12/17 10:20:33;;;;;;;12.93;5.70;;;9.70;90.30;;;;;;4974736;28;20035;-51
2020/12/17 10:22:59;;;;;;;9.18;5.07;;;9.70;89.90;;;;;;4970711;28;20070;-52
2020/12/17 10:25:24;;;;;;;8.15;3.97;;;9.70;90.30;;;;;;4968013;28;20081;-52
2020/12/17 10:27:52;;;;;;;10.43;5.70;;;9.70;90.00;;;;;;4971915;28;20094;-52
2020/12/17 10:30:18;;;;;;;7.82;2.95;;;9.70;90.40;;;;;;4967163;28;20368;-52
2020/12/17 10:32:43;;;;;;;13.05;4.80;;;9.70;89.80;;;;;;4968029;28;20031;-52
2020/12/17 10:35:10;;;;;;;9.82;5.43;;;9.60;90.20;;;;;;4974907;28;20346;-52
2020/12/17 10:37:39;;;;;;;11.13;5.40;;;9.60;90.60;;;;;;4961456;28;20048;-52
2020/12/17 10:40:04;;;;;;;11.77;5.15;;;9.70;90.40;;;;;;4971149;28;20081;-52
2020/12/17 10:42:30;;;;;;;8.02;4.03;;;9.70;90.30;;;;;;4975251;28;20124;-52
2020/12/17 10:44:56;;;;;;;11.65;5.40;;;9.70;90.40;;;;;;4974252;28;20027;-52
2020/12/17 10:47:21;;;;;;;11.77;4.68;;;9.70;90.20;;;;;;4967840;28;20065;-52
2020/12/17 10:49:47;;;;;;;10.20;4.75;;;9.70;90.10;;;;;;4962052;28;20023;-52
2020/12/17 10:52:13;;;;;;;8.77;4.15;;;9.70;90.30;;;;;;4965855;28;20102;-52
2020/12/17 10:54:39;;;;;;;7.63;3.65;;;9.70;90.00;;;;;;4958948;28;20041;-52
2020/12/17 10:57:05;;;;;;;7.10;3.90;;;9.70;90.40;;;;;;4964448;28;20341;-52
2020/12/17 10:59:31;;;;;;;6.72;3.35;;;9.60;90.30;;;;;;4959602;28;20397;-52
2020/12/17 11:02:00;;;;;;;6.78;3.17;;;9.70;90.30;;;;;;4973137;28;20050;-52
2020/12/17 11:04:26;;;;;;;9.27;4.03;;;9.70;90.60;;;;;;4974572;28;20500;-52
2020/12/17 11:06:58;;;;;;;8.20;4.30;;;9.70;90.30;;;;;;4973587;28;20034;-52
2020/12/17 11:09:24;;;;;;;2.45;1.48;;;9.70;90.50;;;;;;4975112;28;20038;-52
2020/12/17 11:11:53;;;;;;;3.25;2.38;;;9.70;90.30;;;;;;4965664;28;20031;-52
2020/12/17 11:14:19;;;;;;;11.18;6.43;;;9.60;90.10;;;;;;4972483;28;20062;-52
2020/12/17 11:16:47;;;;;;;10.18;5.13;;;9.70;90.70;;;;;;4962881;28;20031;-52
2020/12/17 11:19:13;;;;;;;10.93;4.85;;;9.70;90.40;;;;;;4973986;28;20023;-52
2020/12/17 11:21:39;;;;;;;8.80;4.32;;;9.70;90.10;;;;;;4971600;28;20065;-52
2020/12/17 11:24:05;;;;;;;3.63;1.90;;;9.70;90.60;;;;;;4971235;28;20031;-52
2020/12/17 11:26:30;;;;;;;8.45;4.10;;;9.70;90.10;;;;;;4972991;28;20467;-52
2020/12/17 11:28:59;;;;;;;10.00;5.15;;;9.70;90.70;;;;;;4970109;28;20037;-52
2020/12/17 11:31:28;;;;;;;13.52;6.47;;;9.70;90.20;;;;;;4970472;28;20082;-52
2020/12/17 11:33:57;;;;;;;18.65;6.50;;;9.70;90.60;;;;;;4959283;28;20047;-52
2020/12/17 11:36:22;;;;;;;11.13;5.00;;;9.70;90.50;;;;;;4975541;28;20023;-52
2020/12/17 11:38:48;;;;;;;10.38;4.95;;;9.70;90.50;;;;;;4964451;28;20086;-52
2020/12/17 11:41:14;;;;;;;0.90;0.88;;;9.70;90.50;;;;;;4965001;28;20038;-52
2020/12/17 11:43:39;;;;;;;16.05;5.68;;;9.70;90.20;;;;;;4967504;28;20058;-52
2020/12/17 11:46:05;;;;;;;12.18;5.00;;;9.70;90.20;;;;;;4970026;28;20027;-52
2020/12/17 11:48:31;;;;;;;10.93;5.32;;;9.70;90.50;;;;;;4967236;28;20051;-52
2020/12/17 11:50:56;;;;;;;12.90;6.28;;;9.70;90.50;;;;;;4974779;28;20448;-52
2020/12/17 11:53:22;;;;;;;20.45;6.50;;;9.70;90.30;;;;;;4966193;28;20042;-52
2020/12/17 11:55:48;;;;;;;11.70;4.60;;;9.70;90.30;;;;;;4960719;28;20046;-52
2020/12/17 11:58:14;;;;;;;14.90;6.95;;;9.70;90.50;;;;;;4971313;28;20479;-52
2020/12/17 12:00:39;;;;;;;20.27;8.50;;;9.70;90.10;;;;;;4966454;28;20093;-51
2020/12/17 12:03:05;;;;;;;18.88;7.90;;;9.70;90.50;;;;;;4957653;28;20043;-52
2020/12/17 12:05:32;;;;;;;12.63;4.32;;;9.70;90.40;;;;;;4964551;28;20448;-52
2020/12/17 12:07:57;;;;;;;16.23;6.57;;;9.70;90.60;;;;;;4978753;28;20086;-52
2020/12/17 12:10:24;;;;;;;9.32;5.22;;;9.70;90.30;;;;;;4976528;28;20129;-52
2020/12/17 12:12:50;;;;;;;12.80;6.15;;;9.70;90.60;;;;;;4966619;28;20047;-51
2020/12/17 12:15:16;;;;;;;14.77;7.95;;;9.70;90.60;;;;;;4967482;28;20086;-52
2020/12/17 12:17:42;;;;;;;14.63;6.95;;;9.70;90.40;;;;;;4971281;28;20031;-51
2020/12/17 12:20:07;;;;;;;16.48;6.65;;;9.70;90.20;;;;;;4977251;28;20027;-52
2020/12/17 12:22:33;;;;;;;16.67;7.75;;;9.70;90.50;;;;;;4974456;28;20027;-52
2020/12/17 12:24:59;;;;;;;12.77;6.38;;;9.70;90.50;;;;;;4967921;28;20121;-51
2020/12/17 12:27:24;;;;;;;20.70;8.90;;;9.70;90.50;;;;;;4968635;28;20034;-52
2020/12/17 12:29:50;;;;;;;25.05;8.60;;;9.70;90.50;;;;;;4965592;28;20035;-52
2020/12/17 12:32:16;;;;;;;16.50;6.63;;;9.70;90.40;;;;;;4962723;28;20027;-52
2020/12/17 12:34:42;;;;;;;16.92;6.95;;;9.80;90.50;;;;;;4972629;28;20038;-52
2020/12/17 12:37:07;;;;;;;20.23;8.82;;;9.70;90.40;;;;;;4972200;28;20031;-52
2020/12/17 12:39:34;;;;;;;22.25;9.90;;;9.80;90.60;;;;;;4975990;28;20432;-52
2020/12/17 12:41:59;;;;;;;17.30;8.02;;;9.80;90.20;;;;;;4967357;28;20022;-52
2020/12/17 12:44:25;;;;;;;20.08;8.40;;;9.70;90.30;;;;;;4970262;28;20086;-52
2020/12/17 12:46:51;;;;;;;16.05;7.13;;;9.80;90.70;;;;;;4973408;28;20101;-52
2020/12/17 12:49:17;;;;;;;17.98;9.20;;;9.70;90.20;;;;;;4974929;28;20051;-51
2020/12/17 12:51:43;;;;;;;14.65;6.40;;;9.80;90.60;;;;;;4962303;28;20140;-52
2020/12/17 12:54:09;;;;;;;21.83;8.45;;;9.80;90.50;;;;;;4972655;28;20038;-52
2020/12/17 12:56:35;;;;;;;18.63;8.55;;;9.80;90.80;;;;;;4967538;28;20412;-52
2020/12/17 12:59:00;;;;;;;16.73;7.85;;;9.80;90.50;;;;;;4968227;28;20583;-52